sensor_id;sensor_type;location;lat;lon;timestamp;temperature;humidity
9271;DHT22;4673;53.458;9.940;2023-10-31T00:02:10;11.40;98.80
9271;DHT22;4673;53.458;9.940;2023-10-31T00:04:36;11.40;98.80
9271;DHT22;4673;53.458;9.940;2023-10-31T00:07:02;11.40;98.90
9271;DHT22;4673;53.458;9.940;2023-10-31T00:09:28;11.40;98.90
9271;DHT22;4673;53.458;9.940;2023-10-31T00:11:54;11.40;98.90
9271;DHT22;4673;53.458;9.940;2023-10-31T00:14:19;11.30;99.10
9271;DHT22;4673;53.458;9.940;2023-10-31T00:16:45;11.40;99.10
9271;DHT22;4673;53.458;9.940;2023-10-31T00:19:11;11.40;99.20
9271;DHT22;4673;53.458;9.940;2023-10-31T00:21:36;11.40;99.40
9271;DHT22;4673;53.458;9.940;2023-10-31T00:24:02;11.50;99.50
9271;DHT22;4673;53.458;9.940;2023-10-31T00:26:28;11.40;99.40
9271;DHT22;4673;53.458;9.940;2023-10-31T00:28:54;11.40;99.40
9271;DHT22;4673;53.458;9.940;2023-10-31T00:31:20;11.50;99.60
9271;DHT22;4673;53.458;9.940;2023-10-31T00:33:45;11.40;99.40
9271;DHT22;4673;53.458;9.940;2023-10-31T00:36:11;11.40;99.40
9271;DHT22;4673;53.458;9.940;2023-10-31T00:38:37;11.30;99.30
9271;DHT22;4673;53.458;9.940;2023-10-31T00:41:03;11.40;99.40
9271;DHT22;4673;53.458;9.940;2023-10-31T00:43:28;11.40;99.60
9271;DHT22;4673;53.458;9.940;2023-10-31T00:45:54;11.40;99.60
9271;DHT22;4673;53.458;9.940;2023-10-31T00:48:20;11.50;99.70
9271;DHT22;4673;53.458;9.940;2023-10-31T00:50:45;11.40;99.70
9271;DHT22;4673;53.458;9.940;2023-10-31T00:53:11;11.40;99.80
9271;DHT22;4673;53.458;9.940;2023-10-31T00:55:36;11.40;99.90
9271;DHT22;4673;53.458;9.940;2023-10-31T00:58:03;11.50;99.90
9271;DHT22;4673;53.458;9.940;2023-10-31T01:00:28;11.50;99.90
9271;DHT22;4673;53.458;9.940;2023-10-31T01:02:55;11.50;99.90
9271;DHT22;4673;53.458;9.940;2023-10-31T01:05:21;11.40;99.90
9271;DHT22;4673;53.458;9.940;2023-10-31T01:07:46;11.50;99.90
9271;DHT22;4673;53.458;9.940;2023-10-31T01:10:12;11.50;99.90
9271;DHT22;4673;53.458;9.940;2023-10-31T01:12:37;11.50;99.90
9271;DHT22;4673;53.458;9.940;2023-10-31T01:15:03;11.50;99.90
9271;DHT22;4673;53.458;9.940;2023-10-31T01:17:30;11.50;99.90
9271;DHT22;4673;53.458;9.940;2023-10-31T01:19:55;11.50;99.90
9271;DHT22;4673;53.458;9.940;2023-10-31T01:22:21;11.50;99.90
9271;DHT22;4673;53.458;9.940;2023-10-31T01:24:46;11.50;99.90
9271;DHT22;4673;53.458;9.940;2023-10-31T01:27:12;11.50;99.90
9271;DHT22;4673;53.458;9.940;2023-10-31T01:29:41;11.50;99.90
9271;DHT22;4673;53.458;9.940;2023-10-31T01:32:06;11.50;99.90
9271;DHT22;4673;53.458;9.940;2023-10-31T01:34:32;11.50;99.90
9271;DHT22;4673;53.458;9.940;2023-10-31T01:36:58;11.50;99.90
9271;DHT22;4673;53.458;9.940;2023-10-31T01:39:23;11.50;99.90
9271;DHT22;4673;53.458;9.940;2023-10-31T01:41:49;11.50;99.90
9271;DHT22;4673;53.458;9.940;2023-10-31T01:44:14;11.50;99.90
9271;DHT22;4673;53.458;9.940;2023-10-31T01:46:40;11.50;99.90
9271;DHT22;4673;53.458;9.940;2023-10-31T01:49:06;11.50;99.90
9271;DHT22;4673;53.458;9.940;2023-10-31T01:51:31;11.50;99.90
9271;DHT22;4673;53.458;9.940;2023-10-31T01:53:57;11.50;99.90
9271;DHT22;4673;53.458;9.940;2023-10-31T01:56:23;11.50;99.90
9271;DHT22;4673;53.458;9.940;2023-10-31T01:58:50;11.50;99.90
9271;DHT22;4673;53.458;9.940;2023-10-31T02:01:16;11.50;99.90
9271;DHT22;4673;53.458;9.940;2023-10-31T02:03:42;11.50;99.90
9271;DHT22;4673;53.458;9.940;2023-10-31T02:06:07;11.50;99.90
9271;DHT22;4673;53.458;9.940;2023-10-31T02:08:33;11.50;99.90
9271;DHT22;4673;53.458;9.940;2023-10-31T02:10:59;11.50;99.90
9271;DHT22;4673;53.458;9.940;2023-10-31T02:13:25;11.50;99.90
9271;DHT22;4673;53.458;9.940;2023-10-31T02:15:51;11.50;99.90
9271;DHT22;4673;53.458;9.940;2023-10-31T02:18:17;11.50;99.90
9271;DHT22;4673;53.458;9.940;2023-10-31T02:20:43;11.50;99.90
9271;DHT22;4673;53.458;9.940;2023-10-31T02:23:09;11.50;99.90
9271;DHT22;4673;53.458;9.940;2023-10-31T02:25:34;11.50;99.90
9271;DHT22;4673;53.458;9.940;2023-10-31T02:28:00;11.60;99.90
9271;DHT22;4673;53.458;9.940;2023-10-31T02:30:26;11.50;99.90
9271;DHT22;4673;53.458;9.940;2023-10-31T02:32:52;11.60;99.90
9271;DHT22;4673;53.458;9.940;2023-10-31T02:35:18;11.50;99.90
9271;DHT22;4673;53.458;9.940;2023-10-31T02:37:45;11.60;99.90
9271;DHT22;4673;53.458;9.940;2023-10-31T02:40:11;11.50;99.90
9271;DHT22;4673;53.458;9.940;2023-10-31T02:42:37;11.60;99.90
9271;DHT22;4673;53.458;9.940;2023-10-31T02:45:03;11.60;99.90
9271;DHT22;4673;53.458;9.940;2023-10-31T02:47:30;11.50;99.90
9271;DHT22;4673;53.458;9.940;2023-10-31T02:49:55;11.60;99.90
9271;DHT22;4673;53.458;9.940;2023-10-31T02:52:21;11.60;99.90
9271;DHT22;4673;53.458;9.940;2023-10-31T02:54:46;11.60;99.90
9271;DHT22;4673;53.458;9.940;2023-10-31T02:57:12;11.60;99.90
9271;DHT22;4673;53.458;9.940;2023-10-31T02:59:38;11.70;99.90
9271;DHT22;4673;53.458;9.940;2023-10-31T03:02:03;11.70;99.90
9271;DHT22;4673;53.458;9.940;2023-10-31T03:04:29;11.70;99.90
9271;DHT22;4673;53.458;9.940;2023-10-31T03:06:54;11.70;99.90
9271;DHT22;4673;53.458;9.940;2023-10-31T03:09:20;11.70;99.90
9271;DHT22;4673;53.458;9.940;2023-10-31T03:11:46;11.70;99.90
9271;DHT22;4673;53.458;9.940;2023-10-31T03:14:11;11.70;99.90
9271;DHT22;4673;53.458;9.940;2023-10-31T03:16:37;11.70;99.90
9271;DHT22;4673;53.458;9.940;2023-10-31T03:19:04;11.70;99.90
9271;DHT22;4673;53.458;9.940;2023-10-31T03:21:29;11.70;99.90
9271;DHT22;4673;53.458;9.940;2023-10-31T03:23:55;11.70;99.90
9271;DHT22;4673;53.458;9.940;2023-10-31T03:26:23;11.80;99.90
9271;DHT22;4673;53.458;9.940;2023-10-31T03:28:49;11.80;99.90
9271;DHT22;4673;53.458;9.940;2023-10-31T03:31:15;11.80;99.90
9271;DHT22;4673;53.458;9.940;2023-10-31T03:33:41;11.80;99.90
9271;DHT22;4673;53.458;9.940;2023-10-31T03:36:08;11.80;99.90
9271;DHT22;4673;53.458;9.940;2023-10-31T03:38:36;11.80;99.90
9271;DHT22;4673;53.458;9.940;2023-10-31T03:41:02;11.90;99.90
9271;DHT22;4673;53.458;9.940;2023-10-31T03:43:28;11.90;99.90
9271;DHT22;4673;53.458;9.940;2023-10-31T03:45:54;11.90;99.90
9271;DHT22;4673;53.458;9.940;2023-10-31T03:48:20;11.90;99.90
9271;DHT22;4673;53.458;9.940;2023-10-31T03:50:46;11.90;99.90
9271;DHT22;4673;53.458;9.940;2023-10-31T03:53:11;11.90;99.90
9271;DHT22;4673;53.458;9.940;2023-10-31T03:55:37;11.90;99.90
9271;DHT22;4673;53.458;9.940;2023-10-31T03:58:03;12.00;99.90
9271;DHT22;4673;53.458;9.940;2023-10-31T04:00:29;12.00;99.90
9271;DHT22;4673;53.458;9.940;2023-10-31T04:02:55;12.00;99.90
9271;DHT22;4673;53.458;9.940;2023-10-31T04:05:21;12.00;99.90
9271;DHT22;4673;53.458;9.940;2023-10-31T04:07:48;12.00;99.90
9271;DHT22;4673;53.458;9.940;2023-10-31T04:10:14;12.10;99.90
9271;DHT22;4673;53.458;9.940;2023-10-31T04:12:41;12.10;99.90
9271;DHT22;4673;53.458;9.940;2023-10-31T04:15:08;12.10;99.90
9271;DHT22;4673;53.458;9.940;2023-10-31T04:17:33;12.00;99.90
9271;DHT22;4673;53.458;9.940;2023-10-31T04:19:59;12.00;99.90
9271;DHT22;4673;53.458;9.940;2023-10-31T04:22:25;11.90;99.90
9271;DHT22;4673;53.458;9.940;2023-10-31T04:24:50;11.90;99.90
9271;DHT22;4673;53.458;9.940;2023-10-31T04:27:16;11.90;99.90
9271;DHT22;4673;53.458;9.940;2023-10-31T04:29:42;12.00;99.90
9271;DHT22;4673;53.458;9.940;2023-10-31T04:32:07;12.00;99.90
9271;DHT22;4673;53.458;9.940;2023-10-31T04:34:33;12.00;99.90
9271;DHT22;4673;53.458;9.940;2023-10-31T04:36:58;12.10;99.90
9271;DHT22;4673;53.458;9.940;2023-10-31T04:39:24;12.10;99.90
9271;DHT22;4673;53.458;9.940;2023-10-31T04:41:50;12.10;99.90
9271;DHT22;4673;53.458;9.940;2023-10-31T04:44:15;12.10;99.90
9271;DHT22;4673;53.458;9.940;2023-10-31T04:46:42;12.10;99.90
9271;DHT22;4673;53.458;9.940;2023-10-31T04:49:08;12.00;99.90
9271;DHT22;4673;53.458;9.940;2023-10-31T04:51:37;12.00;99.90
9271;DHT22;4673;53.458;9.940;2023-10-31T04:54:03;12.10;99.90
9271;DHT22;4673;53.458;9.940;2023-10-31T04:56:29;12.10;99.90
9271;DHT22;4673;53.458;9.940;2023-10-31T04:58:55;12.10;99.90
9271;DHT22;4673;53.458;9.940;2023-10-31T05:01:20;12.10;99.90
9271;DHT22;4673;53.458;9.940;2023-10-31T05:03:46;12.10;99.90
9271;DHT22;4673;53.458;9.940;2023-10-31T05:06:12;12.10;99.90
9271;DHT22;4673;53.458;9.940;2023-10-31T05:08:37;12.10;99.90
9271;DHT22;4673;53.458;9.940;2023-10-31T05:11:03;12.20;99.90
9271;DHT22;4673;53.458;9.940;2023-10-31T05:13:29;12.20;99.90
9271;DHT22;4673;53.458;9.940;2023-10-31T05:15:54;12.10;99.90
9271;DHT22;4673;53.458;9.940;2023-10-31T05:18:20;12.10;99.90
9271;DHT22;4673;53.458;9.940;2023-10-31T05:20:46;12.10;99.90
9271;DHT22;4673;53.458;9.940;2023-10-31T05:23:11;12.10;99.90
9271;DHT22;4673;53.458;9.940;2023-10-31T05:25:37;12.10;99.90
9271;DHT22;4673;53.458;9.940;2023-10-31T05:28:04;12.10;99.90
9271;DHT22;4673;53.458;9.940;2023-10-31T05:30:29;12.10;99.90
9271;DHT22;4673;53.458;9.940;2023-10-31T05:32:55;12.10;99.90
9271;DHT22;4673;53.458;9.940;2023-10-31T05:35:21;12.10;99.90
9271;DHT22;4673;53.458;9.940;2023-10-31T05:37:47;12.10;99.90
9271;DHT22;4673;53.458;9.940;2023-10-31T05:40:14;12.10;99.90
9271;DHT22;4673;53.458;9.940;2023-10-31T05:42:40;12.10;99.90
9271;DHT22;4673;53.458;9.940;2023-10-31T05:45:06;12.20;99.90
9271;DHT22;4673;53.458;9.940;2023-10-31T05:47:32;12.10;99.90
9271;DHT22;4673;53.458;9.940;2023-10-31T05:50:00;12.10;99.90
9271;DHT22;4673;53.458;9.940;2023-10-31T05:52:29;12.10;99.90
9271;DHT22;4673;53.458;9.940;2023-10-31T05:54:55;12.10;99.90
9271;DHT22;4673;53.458;9.940;2023-10-31T05:57:21;12.10;99.90
9271;DHT22;4673;53.458;9.940;2023-10-31T05:59:47;12.10;99.90
9271;DHT22;4673;53.458;9.940;2023-10-31T06:02:13;12.10;99.90
9271;DHT22;4673;53.458;9.940;2023-10-31T06:04:39;12.10;99.90
9271;DHT22;4673;53.458;9.940;2023-10-31T06:07:05;12.10;99.90
9271;DHT22;4673;53.458;9.940;2023-10-31T06:09:30;12.10;99.90
9271;DHT22;4673;53.458;9.940;2023-10-31T06:11:58;12.10;99.90
9271;DHT22;4673;53.458;9.940;2023-10-31T06:14:24;12.10;99.90
9271;DHT22;4673;53.458;9.940;2023-10-31T06:16:51;12.00;99.90
9271;DHT22;4673;53.458;9.940;2023-10-31T06:19:17;12.00;99.90
9271;DHT22;4673;53.458;9.940;2023-10-31T06:21:43;12.10;99.90
9271;DHT22;4673;53.458;9.940;2023-10-31T06:24:08;12.10;99.90
9271;DHT22;4673;53.458;9.940;2023-10-31T06:26:34;12.00;99.90
9271;DHT22;4673;53.458;9.940;2023-10-31T06:29:00;12.10;99.90
9271;DHT22;4673;53.458;9.940;2023-10-31T06:31:26;12.20;99.90
9271;DHT22;4673;53.458;9.940;2023-10-31T06:33:51;12.10;99.90
9271;DHT22;4673;53.458;9.940;2023-10-31T06:36:17;12.20;99.90
9271;DHT22;4673;53.458;9.940;2023-10-31T06:38:42;12.20;99.90
9271;DHT22;4673;53.458;9.940;2023-10-31T06:41:08;12.10;99.90
9271;DHT22;4673;53.458;9.940;2023-10-31T06:43:34;12.20;99.90
9271;DHT22;4673;53.458;9.940;2023-10-31T06:46:00;12.20;99.90
9271;DHT22;4673;53.458;9.940;2023-10-31T06:48:27;12.20;99.90
9271;DHT22;4673;53.458;9.940;2023-10-31T06:50:53;12.20;99.90
9271;DHT22;4673;53.458;9.940;2023-10-31T06:53:19;12.10;99.90
9271;DHT22;4673;53.458;9.940;2023-10-31T06:55:44;12.20;99.90
9271;DHT22;4673;53.458;9.940;2023-10-31T06:58:10;12.20;99.90
9271;DHT22;4673;53.458;9.940;2023-10-31T07:00:35;12.20;99.90
9271;DHT22;4673;53.458;9.940;2023-10-31T07:03:03;12.10;99.90
9271;DHT22;4673;53.458;9.940;2023-10-31T07:05:32;12.10;99.90
9271;DHT22;4673;53.458;9.940;2023-10-31T07:07:57;12.10;99.90
9271;DHT22;4673;53.458;9.940;2023-10-31T07:10:23;12.10;99.90
9271;DHT22;4673;53.458;9.940;2023-10-31T07:12:49;12.10;99.90
9271;DHT22;4673;53.458;9.940;2023-10-31T07:15:14;12.10;99.90
9271;DHT22;4673;53.458;9.940;2023-10-31T07:17:40;12.10;99.90
9271;DHT22;4673;53.458;9.940;2023-10-31T07:20:06;12.00;99.90
9271;DHT22;4673;53.458;9.940;2023-10-31T07:22:32;11.90;99.90
9271;DHT22;4673;53.458;9.940;2023-10-31T07:24:59;11.90;99.90
9271;DHT22;4673;53.458;9.940;2023-10-31T07:27:28;11.80;99.90
9271;DHT22;4673;53.458;9.940;2023-10-31T07:29:54;11.80;99.90
9271;DHT22;4673;53.458;9.940;2023-10-31T07:32:19;11.70;99.90
9271;DHT22;4673;53.458;9.940;2023-10-31T07:34:45;11.60;99.90
9271;DHT22;4673;53.458;9.940;2023-10-31T07:37:11;11.50;99.80
9271;DHT22;4673;53.458;9.940;2023-10-31T07:39:36;11.50;99.90
9271;DHT22;4673;53.458;9.940;2023-10-31T07:42:02;11.40;99.90
9271;DHT22;4673;53.458;9.940;2023-10-31T07:44:27;11.40;99.70
9271;DHT22;4673;53.458;9.940;2023-10-31T07:46:53;11.40;99.60
9271;DHT22;4673;53.458;9.940;2023-10-31T07:49:19;11.30;99.40
9271;DHT22;4673;53.458;9.940;2023-10-31T07:51:45;11.30;99.30
9271;DHT22;4673;53.458;9.940;2023-10-31T07:54:13;11.30;99.10
9271;DHT22;4673;53.458;9.940;2023-10-31T07:56:39;11.20;98.30
9271;DHT22;4673;53.458;9.940;2023-10-31T07:59:05;11.10;98.10
9271;DHT22;4673;53.458;9.940;2023-10-31T08:01:33;11.00;97.40
9271;DHT22;4673;53.458;9.940;2023-10-31T08:03:59;11.10;97.70
9271;DHT22;4673;53.458;9.940;2023-10-31T08:06:24;11.10;97.70
9271;DHT22;4673;53.458;9.940;2023-10-31T08:08:50;11.10;97.40
9271;DHT22;4673;53.458;9.940;2023-10-31T08:11:15;11.00;96.90
9271;DHT22;4673;53.458;9.940;2023-10-31T08:13:41;11.00;96.70
9271;DHT22;4673;53.458;9.940;2023-10-31T08:16:08;11.00;96.50
9271;DHT22;4673;53.458;9.940;2023-10-31T08:18:34;11.00;96.60
9271;DHT22;4673;53.458;9.940;2023-10-31T08:20:59;11.10;96.70
9271;DHT22;4673;53.458;9.940;2023-10-31T08:23:25;11.10;96.80
9271;DHT22;4673;53.458;9.940;2023-10-31T08:25:51;11.20;96.60
9271;DHT22;4673;53.458;9.940;2023-10-31T08:28:17;11.30;96.40
9271;DHT22;4673;53.458;9.940;2023-10-31T08:30:43;11.20;95.60
9271;DHT22;4673;53.458;9.940;2023-10-31T08:33:08;11.30;95.80
9271;DHT22;4673;53.458;9.940;2023-10-31T08:35:34;11.30;95.60
9271;DHT22;4673;53.458;9.940;2023-10-31T08:38:00;11.20;95.30
9271;DHT22;4673;53.458;9.940;2023-10-31T08:40:26;11.10;94.80
9271;DHT22;4673;53.458;9.940;2023-10-31T08:42:51;11.20;95.10
9271;DHT22;4673;53.458;9.940;2023-10-31T08:45:17;11.30;95.50
9271;DHT22;4673;53.458;9.940;2023-10-31T08:47:43;11.30;95.00
9271;DHT22;4673;53.458;9.940;2023-10-31T08:50:09;11.30;94.90
9271;DHT22;4673;53.458;9.940;2023-10-31T08:52:36;11.20;94.40
9271;DHT22;4673;53.458;9.940;2023-10-31T08:55:02;11.30;94.70
9271;DHT22;4673;53.458;9.940;2023-10-31T08:57:29;11.40;95.30
9271;DHT22;4673;53.458;9.940;2023-10-31T08:59:55;11.40;95.50
9271;DHT22;4673;53.458;9.940;2023-10-31T09:02:20;11.40;95.00
9271;DHT22;4673;53.458;9.940;2023-10-31T09:04:49;11.30;95.00
9271;DHT22;4673;53.458;9.940;2023-10-31T09:07:14;11.20;95.30
9271;DHT22;4673;53.458;9.940;2023-10-31T09:09:40;11.20;95.80
9271;DHT22;4673;53.458;9.940;2023-10-31T09:12:06;11.10;95.80
9271;DHT22;4673;53.458;9.940;2023-10-31T09:14:31;11.00;95.70
9271;DHT22;4673;53.458;9.940;2023-10-31T09:16:57;11.00;96.00
9271;DHT22;4673;53.458;9.940;2023-10-31T09:19:23;11.00;96.20
9271;DHT22;4673;53.458;9.940;2023-10-31T09:21:48;10.80;95.80
9271;DHT22;4673;53.458;9.940;2023-10-31T09:24:14;10.70;96.30
9271;DHT22;4673;53.458;9.940;2023-10-31T09:26:43;10.70;96.60
9271;DHT22;4673;53.458;9.940;2023-10-31T09:29:11;10.60;96.80
9271;DHT22;4673;53.458;9.940;2023-10-31T09:31:37;10.50;97.00
9271;DHT22;4673;53.458;9.940;2023-10-31T09:34:02;10.50;97.40
9271;DHT22;4673;53.458;9.940;2023-10-31T09:36:32;10.50;97.70
9271;DHT22;4673;53.458;9.940;2023-10-31T09:38:57;10.40;97.80
9271;DHT22;4673;53.458;9.940;2023-10-31T09:41:23;10.20;97.80
9271;DHT22;4673;53.458;9.940;2023-10-31T09:43:49;10.20;98.10
9271;DHT22;4673;53.458;9.940;2023-10-31T09:46:16;10.20;98.50
9271;DHT22;4673;53.458;9.940;2023-10-31T09:48:43;10.10;98.80
9271;DHT22;4673;53.458;9.940;2023-10-31T09:51:09;10.00;98.60
9271;DHT22;4673;53.458;9.940;2023-10-31T09:53:38;9.90;98.70
9271;DHT22;4673;53.458;9.940;2023-10-31T09:56:07;9.80;98.50
9271;DHT22;4673;53.458;9.940;2023-10-31T09:58:33;9.80;98.70
9271;DHT22;4673;53.458;9.940;2023-10-31T10:01:00;9.80;98.90
9271;DHT22;4673;53.458;9.940;2023-10-31T10:03:26;9.70;99.00
9271;DHT22;4673;53.458;9.940;2023-10-31T10:05:52;9.70;99.10
9271;DHT22;4673;53.458;9.940;2023-10-31T10:08:19;9.70;99.40
9271;DHT22;4673;53.458;9.940;2023-10-31T10:10:46;9.90;99.70
9271;DHT22;4673;53.458;9.940;2023-10-31T10:13:13;10.00;99.90
9271;DHT22;4673;53.458;9.940;2023-10-31T10:15:48;10.00;99.90
9271;DHT22;4673;53.458;9.940;2023-10-31T10:18:36;10.00;99.80
9271;DHT22;4673;53.458;9.940;2023-10-31T10:21:06;10.10;99.90
9271;DHT22;4673;53.458;9.940;2023-10-31T10:23:32;10.10;99.90
9271;DHT22;4673;53.458;9.940;2023-10-31T10:25:59;10.10;99.90
9271;DHT22;4673;53.458;9.940;2023-10-31T10:28:26;10.10;99.90
9271;DHT22;4673;53.458;9.940;2023-10-31T10:30:53;10.10;99.90
9271;DHT22;4673;53.458;9.940;2023-10-31T10:33:22;10.20;99.90
9271;DHT22;4673;53.458;9.940;2023-10-31T10:35:48;10.10;99.90
9271;DHT22;4673;53.458;9.940;2023-10-31T10:38:15;10.10;99.90
9271;DHT22;4673;53.458;9.940;2023-10-31T10:40:49;10.10;99.90
9271;DHT22;4673;53.458;9.940;2023-10-31T10:43:23;10.10;99.90
9271;DHT22;4673;53.458;9.940;2023-10-31T10:45:58;10.10;99.90
9271;DHT22;4673;53.458;9.940;2023-10-31T10:48:28;10.20;99.90
9271;DHT22;4673;53.458;9.940;2023-10-31T10:51:18;10.20;99.90
9271;DHT22;4673;53.458;9.940;2023-10-31T10:53:50;10.30;99.90
9271;DHT22;4673;53.458;9.940;2023-10-31T10:56:30;10.30;99.90
9271;DHT22;4673;53.458;9.940;2023-10-31T10:59:05;10.40;99.90
9271;DHT22;4673;53.458;9.940;2023-10-31T11:01:33;10.30;99.90
9271;DHT22;4673;53.458;9.940;2023-10-31T11:04:01;10.40;99.90
9271;DHT22;4673;53.458;9.940;2023-10-31T11:06:27;10.40;99.90
9271;DHT22;4673;53.458;9.940;2023-10-31T11:08:55;10.50;99.90
9271;DHT22;4673;53.458;9.940;2023-10-31T11:11:21;10.50;99.90
9271;DHT22;4673;53.458;9.940;2023-10-31T11:13:50;10.60;99.90
9271;DHT22;4673;53.458;9.940;2023-10-31T11:16:44;10.60;99.90
9271;DHT22;4673;53.458;9.940;2023-10-31T11:19:11;10.70;99.90
9271;DHT22;4673;53.458;9.940;2023-10-31T11:21:37;10.80;99.90
9271;DHT22;4673;53.458;9.940;2023-10-31T11:24:17;10.80;99.50
9271;DHT22;4673;53.458;9.940;2023-10-31T11:26:51;10.70;97.80
9271;DHT22;4673;53.458;9.940;2023-10-31T11:29:17;10.70;98.10
9271;DHT22;4673;53.458;9.940;2023-10-31T11:31:43;10.60;97.40
9271;DHT22;4673;53.458;9.940;2023-10-31T11:34:08;10.60;97.10
9271;DHT22;4673;53.458;9.940;2023-10-31T11:36:36;10.70;97.50
9271;DHT22;4673;53.458;9.940;2023-10-31T11:39:15;10.90;97.80
9271;DHT22;4673;53.458;9.940;2023-10-31T11:41:49;10.80;96.30
9271;DHT22;4673;53.458;9.940;2023-10-31T11:44:22;10.70;96.10
9271;DHT22;4673;53.458;9.940;2023-10-31T11:46:50;10.80;96.40
9271;DHT22;4673;53.458;9.940;2023-10-31T11:49:18;10.90;96.70
9271;DHT22;4673;53.458;9.940;2023-10-31T11:51:46;11.00;96.80
9271;DHT22;4673;53.458;9.940;2023-10-31T11:54:13;11.10;97.10
9271;DHT22;4673;53.458;9.940;2023-10-31T11:56:40;11.10;96.90
9271;DHT22;4673;53.458;9.940;2023-10-31T11:59:06;11.20;96.90
9271;DHT22;4673;53.458;9.940;2023-10-31T12:01:44;11.30;96.70
9271;DHT22;4673;53.458;9.940;2023-10-31T12:04:21;11.30;96.30
9271;DHT22;4673;53.458;9.940;2023-10-31T12:06:57;11.40;96.50
9271;DHT22;4673;53.458;9.940;2023-10-31T12:09:23;11.40;95.70
9271;DHT22;4673;53.458;9.940;2023-10-31T12:11:48;11.50;95.60
9271;DHT22;4673;53.458;9.940;2023-10-31T12:14:18;11.60;95.50
9271;DHT22;4673;53.458;9.940;2023-10-31T12:16:44;11.70;94.90
9271;DHT22;4673;53.458;9.940;2023-10-31T12:19:09;11.60;93.50
9271;DHT22;4673;53.458;9.940;2023-10-31T12:24:07;11.90;94.10
9271;DHT22;4673;53.458;9.940;2023-10-31T12:26:34;12.00;93.80
9271;DHT22;4673;53.458;9.940;2023-10-31T12:29:17;11.80;91.70
9271;DHT22;4673;53.458;9.940;2023-10-31T12:31:48;11.60;90.30
9271;DHT22;4673;53.458;9.940;2023-10-31T12:34:15;11.50;90.20
9271;DHT22;4673;53.458;9.940;2023-10-31T12:36:41;11.40;90.30
9271;DHT22;4673;53.458;9.940;2023-10-31T12:39:10;11.30;90.40
9271;DHT22;4673;53.458;9.940;2023-10-31T12:41:37;11.30;91.00
9271;DHT22;4673;53.458;9.940;2023-10-31T12:44:04;11.40;91.30
9271;DHT22;4673;53.458;9.940;2023-10-31T12:46:31;11.50;91.70
9271;DHT22;4673;53.458;9.940;2023-10-31T12:48:57;11.60;92.10
9271;DHT22;4673;53.458;9.940;2023-10-31T12:51:24;11.70;92.00
9271;DHT22;4673;53.458;9.940;2023-10-31T12:53:53;11.60;91.30
9271;DHT22;4673;53.458;9.940;2023-10-31T12:56:40;11.60;91.10
9271;DHT22;4673;53.458;9.940;2023-10-31T12:59:07;11.60;91.00
9271;DHT22;4673;53.458;9.940;2023-10-31T13:01:36;11.60;90.80
9271;DHT22;4673;53.458;9.940;2023-10-31T13:04:03;11.50;89.80
9271;DHT22;4673;53.458;9.940;2023-10-31T13:06:29;11.50;90.00
9271;DHT22;4673;53.458;9.940;2023-10-31T13:08:56;11.60;90.30
9271;DHT22;4673;53.458;9.940;2023-10-31T13:11:22;11.60;90.00
9271;DHT22;4673;53.458;9.940;2023-10-31T13:13:52;11.70;90.30
9271;DHT22;4673;53.458;9.940;2023-10-31T13:16:18;11.80;90.10
9271;DHT22;4673;53.458;9.940;2023-10-31T13:18:44;11.90;89.80
9271;DHT22;4673;53.458;9.940;2023-10-31T13:21:10;11.90;89.00
9271;DHT22;4673;53.458;9.940;2023-10-31T13:23:36;11.90;88.40
9271;DHT22;4673;53.458;9.940;2023-10-31T13:26:04;12.00;88.20
9271;DHT22;4673;53.458;9.940;2023-10-31T13:28:29;11.90;87.40
9271;DHT22;4673;53.458;9.940;2023-10-31T13:30:57;11.70;85.90
9271;DHT22;4673;53.458;9.940;2023-10-31T13:33:23;11.50;86.00
9271;DHT22;4673;53.458;9.940;2023-10-31T13:35:48;11.50;86.90
9271;DHT22;4673;53.458;9.940;2023-10-31T13:38:14;11.50;87.20
9271;DHT22;4673;53.458;9.940;2023-10-31T13:40:40;11.50;87.80
9271;DHT22;4673;53.458;9.940;2023-10-31T13:43:06;11.50;87.90
9271;DHT22;4673;53.458;9.940;2023-10-31T13:45:32;11.50;88.00
9271;DHT22;4673;53.458;9.940;2023-10-31T13:47:58;11.40;87.60
9271;DHT22;4673;53.458;9.940;2023-10-31T13:50:25;11.20;87.20
9271;DHT22;4673;53.458;9.940;2023-10-31T13:52:51;10.80;87.00
9271;DHT22;4673;53.458;9.940;2023-10-31T13:55:18;10.40;86.90
9271;DHT22;4673;53.458;9.940;2023-10-31T13:57:44;9.90;87.00
9271;DHT22;4673;53.458;9.940;2023-10-31T14:00:10;9.60;88.40
9271;DHT22;4673;53.458;9.940;2023-10-31T14:02:36;9.50;89.80
9271;DHT22;4673;53.458;9.940;2023-10-31T14:05:02;9.20;89.50
9271;DHT22;4673;53.458;9.940;2023-10-31T14:07:29;8.90;89.60
9271;DHT22;4673;53.458;9.940;2023-10-31T14:09:55;9.00;90.90
9271;DHT22;4673;53.458;9.940;2023-10-31T14:12:22;8.80;90.90
9271;DHT22;4673;53.458;9.940;2023-10-31T14:14:48;8.80;91.10
9271;DHT22;4673;53.458;9.940;2023-10-31T14:17:15;8.70;91.20
9271;DHT22;4673;53.458;9.940;2023-10-31T14:19:42;8.50;90.30
9271;DHT22;4673;53.458;9.940;2023-10-31T14:22:08;8.40;90.70
9271;DHT22;4673;53.458;9.940;2023-10-31T14:24:34;8.40;90.60
9271;DHT22;4673;53.458;9.940;2023-10-31T14:27:00;8.50;91.40
9271;DHT22;4673;53.458;9.940;2023-10-31T14:29:26;8.40;90.80
9271;DHT22;4673;53.458;9.940;2023-10-31T14:31:52;8.30;90.90
9271;DHT22;4673;53.458;9.940;2023-10-31T14:34:20;8.20;90.50
9271;DHT22;4673;53.458;9.940;2023-10-31T14:36:46;8.20;90.90
9271;DHT22;4673;53.458;9.940;2023-10-31T14:39:12;8.00;90.60
9271;DHT22;4673;53.458;9.940;2023-10-31T14:41:38;8.00;89.70
9271;DHT22;4673;53.458;9.940;2023-10-31T14:44:04;8.00;89.50
9271;DHT22;4673;53.458;9.940;2023-10-31T14:46:30;7.80;88.70
9271;DHT22;4673;53.458;9.940;2023-10-31T14:48:57;7.80;89.00
9271;DHT22;4673;53.458;9.940;2023-10-31T14:51:23;7.90;89.30
9271;DHT22;4673;53.458;9.940;2023-10-31T14:53:49;7.70;88.70
9271;DHT22;4673;53.458;9.940;2023-10-31T14:56:15;7.80;88.90
9271;DHT22;4673;53.458;9.940;2023-10-31T14:58:41;7.80;89.10
9271;DHT22;4673;53.458;9.940;2023-10-31T15:01:07;7.80;88.00
9271;DHT22;4673;53.458;9.940;2023-10-31T15:03:32;7.70;87.00
9271;DHT22;4673;53.458;9.940;2023-10-31T15:05:58;7.60;87.20
9271;DHT22;4673;53.458;9.940;2023-10-31T15:08:24;7.60;87.50
9271;DHT22;4673;53.458;9.940;2023-10-31T15:10:52;7.60;87.70
9271;DHT22;4673;53.458;9.940;2023-10-31T15:13:17;7.60;87.50
9271;DHT22;4673;53.458;9.940;2023-10-31T15:15:43;7.50;86.70
9271;DHT22;4673;53.458;9.940;2023-10-31T15:18:09;7.40;86.80
9271;DHT22;4673;53.458;9.940;2023-10-31T15:20:35;7.50;86.60
9271;DHT22;4673;53.458;9.940;2023-10-31T15:23:01;7.40;85.90
9271;DHT22;4673;53.458;9.940;2023-10-31T15:25:26;7.30;85.80
9271;DHT22;4673;53.458;9.940;2023-10-31T15:27:52;7.10;85.40
9271;DHT22;4673;53.458;9.940;2023-10-31T15:30:18;7.00;85.70
9271;DHT22;4673;53.458;9.940;2023-10-31T15:32:43;6.90;85.80
9271;DHT22;4673;53.458;9.940;2023-10-31T15:35:09;6.70;84.90
9271;DHT22;4673;53.458;9.940;2023-10-31T15:37:35;6.60;85.80
9271;DHT22;4673;53.458;9.940;2023-10-31T15:40:02;6.60;86.40
9271;DHT22;4673;53.458;9.940;2023-10-31T15:42:29;6.60;86.90
9271;DHT22;4673;53.458;9.940;2023-10-31T15:44:55;6.50;86.60
9271;DHT22;4673;53.458;9.940;2023-10-31T15:47:22;6.50;87.00
9271;DHT22;4673;53.458;9.940;2023-10-31T15:49:48;6.40;87.30
9271;DHT22;4673;53.458;9.940;2023-10-31T15:52:14;6.20;86.90
9271;DHT22;4673;53.458;9.940;2023-10-31T15:54:39;6.20;87.40
9271;DHT22;4673;53.458;9.940;2023-10-31T15:57:06;6.20;88.00
9271;DHT22;4673;53.458;9.940;2023-10-31T15:59:33;6.20;88.20
9271;DHT22;4673;53.458;9.940;2023-10-31T16:01:59;6.20;88.60
9271;DHT22;4673;53.458;9.940;2023-10-31T16:04:24;6.10;88.80